Time;durP1;ratioP1;P1;durP2;ratioP2;P2;SDS_P1;SDS_P2;PMS_P1;PMS_P2;Temp;Humidity;BMP_temperature;BMP_pressure;BME280_temperature;BME280_humidity;BME280_pressure;Samples;Min_cycle;Max_cycle;Signal;HPM_P1;HPM_P2
2023/07/17 00:07:41;;;;;;;17.65;13.82;;;18.10;99.90;;;;;;25594058;23;20083;-56
2023/07/17 00:17:43;;;;;;;21.45;15.30;;;18.00;99.90;;;;;;25593926;23;20004;-56
2023/07/17 00:27:44;;;;;;;19.23;13.23;;;18.10;99.90;;;;;;25593868;23;20008;-56
2023/07/17 00:37:47;;;;;;;21.25;12.93;;;18.10;99.90;;;;;;25593258;23;20024;-56
2023/07/17 00:47:48;;;;;;;14.00;11.73;;;18.00;99.90;;;;;;25592779;23;20107;-53
2023/07/17 00:57:51;;;;;;;15.88;10.98;;;17.90;99.90;;;;;;25592595;23;20005;-56
2023/07/17 01:07:54;;;;;;;18.75;10.40;;;17.90;99.90;;;;;;25590022;23;20001;-54
2023/07/17 01:17:56;;;;;;;13.98;11.27;;;18.00;99.90;;;;;;25591520;23;20029;-55
2023/07/17 01:27:57;;;;;;;19.30;14.52;;;18.00;99.90;;;;;;25591141;23;20432;-56
2023/07/17 01:37:59;;;;;;;20.88;14.85;;;17.80;99.90;;;;;;25588931;23;20029;-47
2023/07/17 01:48:02;;;;;;;18.65;14.13;;;17.70;99.90;;;;;;25590332;23;20005;-56
2023/07/17 01:58:05;;;;;;;20.35;14.95;;;17.90;99.90;;;;;;25590296;23;20013;-53
2023/07/17 02:08:06;;;;;;;20.35;14.43;;;18.30;99.90;;;;;;25587852;23;20008;-53
2023/07/17 02:18:08;;;;;;;22.17;15.02;;;18.60;99.90;;;;;;25589309;23;20005;-54
2023/07/17 02:28:09;;;;;;;22.60;15.02;;;18.80;99.90;;;;;;25588475;23;20012;-56
2023/07/17 02:38:11;;;;;;;20.83;14.27;;;18.60;99.90;;;;;;25588430;23;20021;-56
2023/07/17 02:48:12;;;;;;;14.07;12.57;;;18.40;99.90;;;;;;25588028;23;20033;-56
2023/07/17 02:58:17;;;;;;;17.70;10.75;;;18.20;99.90;;;;;;25587997;23;20005;-55
2023/07/17 03:08:19;;;;;;;14.13;9.60;;;17.90;99.90;;;;;;25587723;23;20314;-56
2023/07/17 03:18:21;;;;;;;13.23;9.43;;;17.80;99.90;;;;;;25585953;23;20005;-56
2023/07/17 03:28:22;;;;;;;12.05;8.80;;;17.80;99.90;;;;;;25586087;23;20009;-56
2023/07/17 03:38:24;;;;;;;18.77;10.38;;;17.70;99.90;;;;;;25594359;23;20414;-56
2023/07/17 03:48:26;;;;;;;16.50;10.60;;;17.60;99.90;;;;;;25593358;23;20005;-55
2023/07/17 03:58:28;;;;;;;18.73;11.93;;;17.30;99.90;;;;;;25592909;23;20075;-47
2023/07/17 04:08:31;;;;;;;15.10;12.02;;;17.00;99.90;;;;;;25592752;23;20063;-56
2023/07/17 04:18:32;;;;;;;15.57;11.30;;;16.90;99.90;;;;;;25592436;23;20009;-46
2023/07/17 04:28:36;;;;;;;18.85;9.88;;;16.80;99.90;;;;;;25592039;23;20067;-50
2023/07/17 04:38:37;;;;;;;15.43;10.30;;;16.90;99.90;;;;;;25591851;23;20068;-55
2023/07/17 04:48:39;;;;;;;16.83;9.82;;;17.00;99.90;;;;;;25590932;23;20020;-55
2023/07/17 04:58:41;;;;;;;16.92;10.93;;;17.00;99.90;;;;;;25592619;23;20001;-56
2023/07/17 05:08:43;;;;;;;15.43;11.70;;;17.10;99.90;;;;;;25590525;23;20060;-50
2023/07/17 05:18:44;;;;;;;20.27;13.25;;;17.30;99.90;;;;;;25590194;23;20009;-51
2023/07/17 05:28:48;;;;;;;18.90;14.25;;;17.60;99.90;;;;;;25589652;23;20005;-48
2023/07/17 05:38:50;;;;;;;26.92;12.75;;;18.10;99.90;;;;;;25589092;23;20317;-50
2023/07/17 05:48:53;;;;;;;16.55;13.40;;;18.90;99.90;;;;;;25589968;23;20036;-56
2023/07/17 05:58:55;;;;;;;18.10;13.88;;;20.00;99.90;;;;;;25588203;23;20024;-56
2023/07/17 06:09:00;;;;;;;17.75;11.82;;;21.50;99.90;;;;;;25587097;23;20020;-56
2023/07/17 06:19:03;;;;;;;17.15;11.63;;;22.90;99.90;;;;;;25589224;23;20009;-57
2023/07/17 06:29:09;;;;;;;13.65;11.63;;;22.90;99.90;;;;;;25588835;23;20340;-48
2023/07/17 06:39:11;;;;;;;11.60;9.98;;;22.50;99.90;;;;;;25610110;23;20387;-57
2023/07/17 06:49:13;;;;;;;11.90;7.70;;;22.70;99.90;;;;;;25588411;23;20019;-55
2023/07/17 06:59:15;;;;;;;10.35;5.72;;;23.30;99.90;;;;;;25588074;23;20001;-57
2023/07/17 07:09:17;;;;;;;10.95;7.00;;;25.40;99.90;;;;;;25587278;23;20005;-58
2023/07/17 07:19:19;;;;;;;8.07;6.95;;;28.20;99.90;;;;;;25586136;23;20009;-57
2023/07/17 07:29:20;;;;;;;11.07;8.68;;;27.00;99.90;;;;;;25587241;23;20441;-57
2023/07/17 07:39:22;;;;;;;10.55;7.88;;;27.00;99.90;;;;;;25586172;23;20054;-57
2023/07/17 07:49:24;;;;;;;11.95;8.75;;;26.50;99.90;;;;;;25587011;23;20009;-56
2023/07/17 07:59:26;;;;;;;13.57;10.30;;;26.40;99.90;;;;;;25586884;23;20502;-56
2023/07/17 08:09:28;;;;;;;12.35;7.90;;;26.20;99.90;;;;;;25586870;23;20001;-57
2023/07/17 08:19:30;;;;;;;16.08;8.90;;;27.40;99.90;;;;;;25587863;23;20005;-57
2023/07/17 08:29:31;;;;;;;11.63;8.95;;;28.70;99.90;;;;;;25593516;23;20012;-50
2023/07/17 08:39:33;;;;;;;13.65;11.07;;;30.60;99.90;;;;;;25593371;23;20008;-58
2023/07/17 08:49:38;;;;;;;14.52;10.20;;;30.20;99.90;;;;;;25593103;23;20040;-59
2023/07/17 08:59:40;;;;;;;11.48;9.27;;;30.70;99.90;;;;;;25590639;23;20009;-58
2023/07/17 09:09:41;;;;;;;15.00;10.65;;;29.40;99.90;;;;;;25590676;23;20126;-58
2023/07/17 09:19:43;;;;;;;15.48;12.48;;;28.90;99.90;;;;;;25591655;23;20016;-58
2023/07/17 09:29:45;;;;;;;15.65;11.40;;;29.40;99.90;;;;;;25591230;23;20052;-50
2023/07/17 09:39:52;;;;;;;13.88;10.48;;;29.40;99.90;;;;;;25590906;23;20037;-58
2023/07/17 09:49:54;;;;;;;16.88;12.63;;;30.10;99.90;;;;;;25631514;23;20432;-58
2023/07/17 09:59:58;;;;;;;18.23;13.07;;;29.80;99.90;;;;;;25590074;23;20008;-58
2023/07/17 10:10:00;;;;;;;17.75;14.18;;;29.10;99.90;;;;;;25588754;23;20005;-48
2023/07/17 10:20:08;;;;;;;18.70;15.82;;;28.20;99.90;;;;;;25589077;23;20009;-58
2023/07/17 10:30:24;;;;;;;18.15;14.48;;;27.30;99.90;;;;;;25629847;23;20432;-57
2023/07/17 10:40:27;;;;;;;18.52;13.02;;;27.40;99.90;;;;;;25605495;23;20087;-57
2023/07/17 10:50:29;;;;;;;1098.97;343.77;;;28.30;99.90;;;;;;25589185;23;20531;-57
2023/07/17 11:00:33;;;;;;;881.47;223.90;;;28.20;99.90;;;;;;25587735;23;20012;-58
2023/07/17 11:10:36;;;;;;;18.80;11.68;;;28.10;99.90;;;;;;25587435;23;20075;-59
2023/07/17 11:20:37;;;;;;;12.70;8.90;;;27.90;99.90;;;;;;25586341;23;20016;-58
2023/07/17 11:30:39;;;;;;;13.48;8.77;;;28.90;99.90;;;;;;25587162;23;20009;-58
2023/07/17 11:40:53;;;;;;;13.38;7.57;;;30.00;99.90;;;;;;25587144;23;20048;-59
2023/07/17 11:50:56;;;;;;;13.50;8.32;;;30.70;99.90;;;;;;25586919;23;20005;-52
2023/07/17 12:00:58;;;;;;;19.52;7.20;;;30.90;99.90;;;;;;25593701;23;20001;-58
2023/07/17 12:10:59;;;;;;;34.47;12.68;;;31.00;99.90;;;;;;25593620;23;20055;-59
2023/07/17 12:21:01;;;;;;;149.38;38.92;;;31.50;99.70;;;;;;25593530;23;20087;-59
2023/07/17 12:31:06;;;;;;;31.63;11.05;;;31.10;98.50;;;;;;25595172;23;20078;-59
2023/07/17 12:41:08;;;;;;;12.32;6.88;;;31.20;98.40;;;;;;25593089;23;20044;-59
2023/07/17 12:51:10;;;;;;;16.58;6.75;;;31.30;96.90;;;;;;25592656;23;20147;-58
2023/07/17 13:01:12;;;;;;;16.42;6.43;;;31.30;96.60;;;;;;25592442;23;20024;-58
2023/07/17 13:11:14;;;;;;;14.13;6.78;;;31.40;98.10;;;;;;25590440;23;20083;-59
2023/07/17 13:21:16;;;;;;;38.72;12.68;;;31.80;97.30;;;;;;25591513;23;20546;-59
2023/07/17 13:31:17;;;;;;;12.88;7.15;;;31.80;96.30;;;;;;25591251;23;20028;-59
2023/07/17 13:41:39;;;;;;;12.60;7.72;;;31.80;97.80;;;;;;25590501;23;20075;-59
2023/07/17 13:51:41;;;;;;;13.25;6.68;;;32.10;96.10;;;;;;25629855;23;20005;-58
2023/07/17 14:01:43;;;;;;;12.98;7.32;;;32.10;95.90;;;;;;25589323;23;20056;-59
2023/07/17 14:11:45;;;;;;;12.02;6.80;;;32.30;96.20;;;;;;25589122;23;20009;-58
2023/07/17 14:21:46;;;;;;;13.57;7.28;;;32.40;95.70;;;;;;25588789;23;20008;-58
2023/07/17 14:31:48;;;;;;;13.30;6.88;;;32.70;94.60;;;;;;25588411;23;20013;-58
2023/07/17 14:41:50;;;;;;;13.05;6.55;;;32.90;93.90;;;;;;25587358;23;20100;-50
2023/07/17 14:51:51;;;;;;;12.70;7.13;;;32.70;94.40;;;;;;25587929;23;20448;-58
2023/07/17 15:01:53;;;;;;;15.95;7.78;;;32.80;94.00;;;;;;25587850;23;20009;-58
2023/07/17 15:11:54;;;;;;;11.93;6.80;;;32.90;94.00;;;;;;25587507;23;20032;-58
2023/07/17 15:21:59;;;;;;;11.82;7.25;;;32.90;93.20;;;;;;25588886;23;20818;-58
2023/07/17 15:32:00;;;;;;;14.85;8.25;;;33.10;93.60;;;;;;25591444;23;20016;-58
2023/07/17 15:42:02;;;;;;;12.77;7.68;;;32.70;93.80;;;;;;25593855;23;20012;-58
2023/07/17 15:52:04;;;;;;;12.43;7.88;;;32.50;93.80;;;;;;25594939;23;20005;-58
2023/07/17 16:02:06;;;;;;;10.93;8.57;;;31.80;94.70;;;;;;25593905;23;20048;-58
2023/07/17 16:12:08;;;;;;;15.38;9.70;;;31.20;95.40;;;;;;25592005;23;20055;-58
2023/07/17 16:22:10;;;;;;;15.65;8.45;;;29.70;96.40;;;;;;25590664;23;20005;-57
2023/07/17 16:32:11;;;;;;;12.52;8.70;;;27.80;98.80;;;;;;25591847;23;20009;-47
2023/07/17 16:42:13;;;;;;;16.92;9.70;;;26.80;99.90;;;;;;25594727;23;20027;-58
2023/07/17 16:52:15;;;;;;;13.77;9.98;;;26.00;99.90;;;;;;25590796;23;20024;-59
2023/07/17 17:02:18;;;;;;;13.27;8.95;;;24.00;99.90;;;;;;25592035;23;20075;-58
2023/07/17 17:12:19;;;;;;;13.65;9.20;;;22.80;99.90;;;;;;25591829;23;20067;-58
2023/07/17 17:22:21;;;;;;;10.98;8.40;;;22.00;99.90;;;;;;25591496;23;20005;-58
2023/07/17 17:32:22;;;;;;;12.60;8.88;;;21.40;99.90;;;;;;25591104;23;20016;-58
2023/07/17 17:42:24;;;;;;;11.65;8.27;;;21.00;99.90;;;;;;25590033;23;20437;-58
2023/07/17 17:52:26;;;;;;;12.05;7.75;;;20.70;99.90;;;;;;25590122;23;20332;-58
2023/07/17 18:02:28;;;;;;;8.98;6.93;;;20.60;99.90;;;;;;25590203;23;20013;-58
2023/07/17 18:12:29;;;;;;;8.95;5.32;;;20.20;99.90;;;;;;25591453;23;20001;-58
2023/07/17 18:22:31;;;;;;;8.32;4.57;;;20.20;99.80;;;;;;25589345;23;20380;-57
2023/07/17 18:32:32;;;;;;;7.55;4.22;;;20.20;97.20;;;;;;25587404;23;20058;-57
2023/07/17 18:42:35;;;;;;;5.22;3.63;;;20.00;95.30;;;;;;25590986;23;20017;-57
2023/07/17 18:52:37;;;;;;;5.05;3.47;;;19.70;93.70;;;;;;25587997;23;20012;-54
2023/07/17 19:02:39;;;;;;;6.40;3.45;;;19.50;95.00;;;;;;25587159;23;20009;-58
2023/07/17 19:12:42;;;;;;;6.22;2.88;;;19.30;94.30;;;;;;25586370;23;20009;-57
2023/07/17 19:22:44;;;;;;;3.17;2.22;;;19.40;94.60;;;;;;25587659;23;20336;-57
2023/07/17 19:32:46;;;;;;;3.85;2.28;;;19.50;93.00;;;;;;25587051;23;20001;-57
2023/07/17 19:42:48;;;;;;;3.97;2.60;;;19.70;93.80;;;;;;25584502;23;20021;-57
2023/07/17 19:52:50;;;;;;;6.22;2.80;;;19.60;95.00;;;;;;25587240;23;20001;-57
2023/07/17 20:02:51;;;;;;;4.50;2.63;;;20.10;93.60;;;;;;25586903;23;20008;-57
2023/07/17 20:12:53;;;;;;;8.40;3.75;;;21.30;94.10;;;;;;25585895;23;20009;-56
2023/07/17 20:22:54;;;;;;;6.55;3.47;;;21.90;93.80;;;;;;25593855;23;20040;-51
2023/07/17 20:32:56;;;;;;;8.98;3.70;;;22.30;94.40;;;;;;25593066;23;20005;-55
2023/07/17 20:42:59;;;;;;;8.65;3.65;;;22.50;94.50;;;;;;25592242;23;20072;-56
2023/07/17 20:53:01;;;;;;;8.75;3.80;;;22.10;96.40;;;;;;25592197;23;20009;-57
2023/07/17 21:03:03;;;;;;;7.25;3.95;;;21.30;97.80;;;;;;25591792;23;20063;-57
2023/07/17 21:13:04;;;;;;;7.20;3.90;;;20.70;99.90;;;;;;25591714;23;20005;-56
2023/07/17 21:23:06;;;;;;;8.93;4.22;;;20.20;99.90;;;;;;25591158;23;20005;-47
2023/07/17 21:33:07;;;;;;;10.68;4.88;;;20.10;99.90;;;;;;25589809;23;20093;-47
2023/07/17 21:43:09;;;;;;;12.52;4.40;;;19.80;99.90;;;;;;25587813;23;20017;-57
2023/07/17 21:53:14;;;;;;;7.07;4.05;;;19.60;99.90;;;;;;25590051;23;20012;-57
2023/07/17 22:03:17;;;;;;;7.30;4.30;;;19.30;99.90;;;;;;25590841;23;20005;-56
2023/07/17 22:13:19;;;;;;;9.00;4.68;;;19.10;99.90;;;;;;25591094;23;20005;-57
2023/07/17 22:23:20;;;;;;;10.30;4.53;;;19.00;99.90;;;;;;25590413;23;20009;-49
2023/07/17 22:33:23;;;;;;;9.98;4.63;;;18.60;99.90;;;;;;25590021;23;20005;-57
2023/07/17 22:43:25;;;;;;;10.30;4.85;;;18.40;99.90;;;;;;25589336;23;20021;-56
2023/07/17 22:53:27;;;;;;;10.00;4.80;;;18.10;99.90;;;;;;25589227;23;20376;-56
2023/07/17 23:03:28;;;;;;;8.48;4.47;;;18.20;99.90;;;;;;25589305;23;20422;-56
2023/07/17 23:13:30;;;;;;;8.20;4.13;;;18.00;99.90;;;;;;25588789;23;20012;-48
2023/07/17 23:23:32;;;;;;;9.02;4.55;;;17.70;99.90;;;;;;25588248;23;20020;-57
2023/07/17 23:33:34;;;;;;;8.82;4.30;;;17.90;99.90;;;;;;25588174;23;20009;-57
2023/07/17 23:43:35;;;;;;;8.50;4.50;;;17.80;99.90;;;;;;25588217;23;20024;-57
2023/07/17 23:53:37;;;;;;;7.63;4.20;;;17.80;99.90;;;;;;25592609;23;20432;-54
